sensor_id;sensor_type;location;lat;lon;timestamp;P1;durP1;ratioP1;P2;durP2;ratioP2
1677;SDS011;6034;46.864;15.216;2024-01-10T06:01:21;8.85;;;6.20;;
1677;SDS011;6034;46.864;15.216;2024-01-10T06:03:49;11.20;;;7.35;;
1677;SDS011;6034;46.864;15.216;2024-01-10T06:06:16;12.25;;;6.25;;
1677;SDS011;6034;46.864;15.216;2024-01-10T06:08:44;11.63;;;7.05;;
1677;SDS011;6034;46.864;15.216;2024-01-10T06:11:11;24.73;;;6.88;;
1677;SDS011;6034;46.864;15.216;2024-01-10T06:13:38;10.00;;;6.28;;
1677;SDS011;6034;46.864;15.216;2024-01-10T06:16:06;11.88;;;7.43;;
1677;SDS011;6034;46.864;15.216;2024-01-10T06:18:35;10.75;;;7.25;;
1677;SDS011;6034;46.864;15.216;2024-01-10T06:21:03;12.63;;;6.65;;
1677;SDS011;6034;46.864;15.216;2024-01-10T06:23:31;12.45;;;6.20;;
1677;SDS011;6034;46.864;15.216;2024-01-10T06:25:58;9.88;;;5.93;;
1677;SDS011;6034;46.864;15.216;2024-01-10T06:28:25;6.82;;;5.32;;
1677;SDS011;6034;46.864;15.216;2024-01-10T06:30:53;10.20;;;5.95;;
1677;SDS011;6034;46.864;15.216;2024-01-10T06:33:20;7.05;;;5.45;;
1677;SDS011;6034;46.864;15.216;2024-01-10T06:35:49;8.98;;;5.60;;
1677;SDS011;6034;46.864;15.216;2024-01-10T06:38:16;11.57;;;7.38;;
1677;SDS011;6034;46.864;15.216;2024-01-10T06:40:46;7.18;;;5.25;;
1677;SDS011;6034;46.864;15.216;2024-01-10T06:43:13;8.15;;;5.57;;
1677;SDS011;6034;46.864;15.216;2024-01-10T06:45:41;13.48;;;6.80;;
1677;SDS011;6034;46.864;15.216;2024-01-10T06:48:09;8.18;;;5.50;;
1677;SDS011;6034;46.864;15.216;2024-01-10T06:50:37;9.15;;;5.30;;
1677;SDS011;6034;46.864;15.216;2024-01-10T06:53:06;8.23;;;6.00;;
1677;SDS011;6034;46.864;15.216;2024-01-10T06:55:34;7.95;;;5.22;;
1677;SDS011;6034;46.864;15.216;2024-01-10T06:58:01;9.00;;;6.25;;
1677;SDS011;6034;46.864;15.216;2024-01-10T07:00:29;12.90;;;6.68;;
1677;SDS011;6034;46.864;15.216;2024-01-10T07:02:56;8.73;;;5.22;;
1677;SDS011;6034;46.864;15.216;2024-01-10T07:05:27;12.15;;;6.38;;
1677;SDS011;6034;46.864;15.216;2024-01-10T07:07:56;12.55;;;6.47;;
1677;SDS011;6034;46.864;15.216;2024-01-10T07:10:25;11.63;;;5.35;;
1677;SDS011;6034;46.864;15.216;2024-01-10T07:12:54;10.02;;;6.78;;
1677;SDS011;6034;46.864;15.216;2024-01-10T07:15:21;10.80;;;5.70;;
1677;SDS011;6034;46.864;15.216;2024-01-10T07:17:49;8.52;;;6.55;;
1677;SDS011;6034;46.864;15.216;2024-01-10T07:20:17;12.52;;;7.72;;
1677;SDS011;6034;46.864;15.216;2024-01-10T07:22:45;8.02;;;6.32;;
1677;SDS011;6034;46.864;15.216;2024-01-10T07:25:14;8.50;;;6.97;;
1677;SDS011;6034;46.864;15.216;2024-01-10T07:27:43;8.23;;;6.43;;
1677;SDS011;6034;46.864;15.216;2024-01-10T07:30:11;11.15;;;7.50;;
1677;SDS011;6034;46.864;15.216;2024-01-10T07:32:39;11.55;;;7.75;;
1677;SDS011;6034;46.864;15.216;2024-01-10T07:35:08;11.05;;;7.22;;
1677;SDS011;6034;46.864;15.216;2024-01-10T07:37:36;12.45;;;7.43;;
1677;SDS011;6034;46.864;15.216;2024-01-10T07:40:04;12.30;;;6.40;;
1677;SDS011;6034;46.864;15.216;2024-01-10T07:42:33;11.60;;;6.45;;
1677;SDS011;6034;46.864;15.216;2024-01-10T07:45:02;10.05;;;6.43;;
1677;SDS011;6034;46.864;15.216;2024-01-10T07:47:30;9.20;;;6.85;;
1677;SDS011;6034;46.864;15.216;2024-01-10T07:49:59;12.93;;;6.72;;
1677;SDS011;6034;46.864;15.216;2024-01-10T07:52:28;11.43;;;6.22;;
1677;SDS011;6034;46.864;15.216;2024-01-10T07:54:55;8.02;;;5.65;;
1677;SDS011;6034;46.864;15.216;2024-01-10T07:57:23;11.93;;;5.50;;
1677;SDS011;6034;46.864;15.216;2024-01-10T07:59:52;12.65;;;6.95;;
1677;SDS011;6034;46.864;15.216;2024-01-10T08:02:24;10.35;;;7.38;;
1677;SDS011;6034;46.864;15.216;2024-01-10T08:04:51;10.90;;;6.95;;
1677;SDS011;6034;46.864;15.216;2024-01-10T08:07:19;9.13;;;6.57;;
1677;SDS011;6034;46.864;15.216;2024-01-10T08:09:46;12.90;;;7.22;;
1677;SDS011;6034;46.864;15.216;2024-01-10T08:12:13;9.00;;;6.00;;
1677;SDS011;6034;46.864;15.216;2024-01-10T08:14:41;14.05;;;7.70;;
1677;SDS011;6034;46.864;15.216;2024-01-10T08:17:11;7.55;;;6.18;;
1677;SDS011;6034;46.864;15.216;2024-01-10T08:19:40;7.35;;;5.72;;
1677;SDS011;6034;46.864;15.216;2024-01-10T08:22:07;8.65;;;6.57;;
1677;SDS011;6034;46.864;15.216;2024-01-10T08:24:40;9.05;;;6.88;;
1677;SDS011;6034;46.864;15.216;2024-01-10T08:27:09;10.55;;;7.20;;
1677;SDS011;6034;46.864;15.216;2024-01-10T08:29:36;9.23;;;6.82;;
1677;SDS011;6034;46.864;15.216;2024-01-10T08:32:04;9.57;;;6.88;;
1677;SDS011;6034;46.864;15.216;2024-01-10T08:34:32;12.32;;;7.65;;
1677;SDS011;6034;46.864;15.216;2024-01-10T08:37:01;11.13;;;7.60;;
1677;SDS011;6034;46.864;15.216;2024-01-10T08:39:28;8.07;;;6.57;;
1677;SDS011;6034;46.864;15.216;2024-01-10T08:41:55;10.15;;;7.85;;
1677;SDS011;6034;46.864;15.216;2024-01-10T08:44:23;10.02;;;7.70;;
1677;SDS011;6034;46.864;15.216;2024-01-10T08:46:50;10.55;;;7.30;;
1677;SDS011;6034;46.864;15.216;2024-01-10T08:49:18;14.90;;;8.48;;
1677;SDS011;6034;46.864;15.216;2024-01-10T08:51:46;11.48;;;6.93;;
1677;SDS011;6034;46.864;15.216;2024-01-10T08:54:16;10.82;;;7.97;;
1677;SDS011;6034;46.864;15.216;2024-01-10T08:56:45;12.50;;;7.88;;
1677;SDS011;6034;46.864;15.216;2024-01-10T08:59:12;11.18;;;8.15;;
1677;SDS011;6034;46.864;15.216;2024-01-10T09:01:40;14.45;;;9.00;;
1677;SDS011;6034;46.864;15.216;2024-01-10T09:04:08;12.88;;;9.13;;
1677;SDS011;6034;46.864;15.216;2024-01-10T09:06:35;13.00;;;8.43;;
1677;SDS011;6034;46.864;15.216;2024-01-10T09:09:03;12.98;;;8.63;;
1677;SDS011;6034;46.864;15.216;2024-01-10T09:11:32;13.90;;;9.10;;
1677;SDS011;6034;46.864;15.216;2024-01-10T09:14:00;9.43;;;7.93;;
1677;SDS011;6034;46.864;15.216;2024-01-10T09:16:28;10.18;;;8.10;;
1677;SDS011;6034;46.864;15.216;2024-01-10T09:18:56;14.05;;;8.60;;
1677;SDS011;6034;46.864;15.216;2024-01-10T09:21:26;11.65;;;7.53;;
1677;SDS011;6034;46.864;15.216;2024-01-10T09:23:54;11.10;;;9.02;;
1677;SDS011;6034;46.864;15.216;2024-01-10T09:26:22;14.55;;;8.48;;
1677;SDS011;6034;46.864;15.216;2024-01-10T09:28:52;12.32;;;7.32;;
1677;SDS011;6034;46.864;15.216;2024-01-10T09:31:21;13.85;;;7.70;;
1677;SDS011;6034;46.864;15.216;2024-01-10T09:33:50;12.35;;;8.07;;
1677;SDS011;6034;46.864;15.216;2024-01-10T09:36:17;12.27;;;8.30;;
1677;SDS011;6034;46.864;15.216;2024-01-10T09:38:44;14.38;;;9.18;;
1677;SDS011;6034;46.864;15.216;2024-01-10T09:41:12;12.98;;;9.40;;
1677;SDS011;6034;46.864;15.216;2024-01-10T09:43:40;17.00;;;9.00;;
1677;SDS011;6034;46.864;15.216;2024-01-10T09:46:08;10.50;;;7.35;;
1677;SDS011;6034;46.864;15.216;2024-01-10T09:48:37;14.38;;;8.38;;
1677;SDS011;6034;46.864;15.216;2024-01-10T09:51:04;12.02;;;7.32;;
1677;SDS011;6034;46.864;15.216;2024-01-10T09:53:32;12.90;;;8.25;;
1677;SDS011;6034;46.864;15.216;2024-01-10T09:56:05;11.63;;;7.93;;
1677;SDS011;6034;46.864;15.216;2024-01-10T09:58:35;11.35;;;8.30;;
1677;SDS011;6034;46.864;15.216;2024-01-10T10:01:04;10.82;;;7.72;;
1677;SDS011;6034;46.864;15.216;2024-01-10T10:03:34;12.45;;;8.85;;
1677;SDS011;6034;46.864;15.216;2024-01-10T10:06:04;14.73;;;8.52;;
1677;SDS011;6034;46.864;15.216;2024-01-10T10:08:32;13.00;;;9.25;;
1677;SDS011;6034;46.864;15.216;2024-01-10T10:10:59;10.82;;;7.90;;
1677;SDS011;6034;46.864;15.216;2024-01-10T10:13:28;12.68;;;10.00;;
1677;SDS011;6034;46.864;15.216;2024-01-10T10:15:57;14.93;;;8.05;;
1677;SDS011;6034;46.864;15.216;2024-01-10T10:18:26;13.50;;;8.32;;
1677;SDS011;6034;46.864;15.216;2024-01-10T10:21:19;12.98;;;8.38;;
1677;SDS011;6034;46.864;15.216;2024-01-10T10:36:32;12.23;;;8.15;;
1677;SDS011;6034;46.864;15.216;2024-01-10T10:39:00;11.30;;;8.30;;
1677;SDS011;6034;46.864;15.216;2024-01-10T10:41:35;13.10;;;8.50;;
1677;SDS011;6034;46.864;15.216;2024-01-10T10:44:06;14.75;;;10.13;;
1677;SDS011;6034;46.864;15.216;2024-01-10T10:46:36;11.70;;;8.48;;
1677;SDS011;6034;46.864;15.216;2024-01-10T10:49:06;12.25;;;8.93;;
1677;SDS011;6034;46.864;15.216;2024-01-10T10:51:40;12.60;;;8.98;;
1677;SDS011;6034;46.864;15.216;2024-01-10T10:54:08;12.93;;;9.45;;
1677;SDS011;6034;46.864;15.216;2024-01-10T10:56:37;14.05;;;8.82;;
1677;SDS011;6034;46.864;15.216;2024-01-10T10:59:07;13.57;;;8.57;;
1677;SDS011;6034;46.864;15.216;2024-01-10T11:01:35;11.90;;;8.32;;
1677;SDS011;6034;46.864;15.216;2024-01-10T11:04:03;13.80;;;9.20;;
1677;SDS011;6034;46.864;15.216;2024-01-10T11:06:32;13.00;;;9.88;;
1677;SDS011;6034;46.864;15.216;2024-01-10T11:09:03;13.75;;;8.35;;
1677;SDS011;6034;46.864;15.216;2024-01-10T11:11:39;12.30;;;7.90;;
1677;SDS011;6034;46.864;15.216;2024-01-10T11:14:26;11.73;;;7.53;;
1677;SDS011;6034;46.864;15.216;2024-01-10T11:20:31;11.90;;;8.27;;
1677;SDS011;6034;46.864;15.216;2024-01-10T11:23:15;12.95;;;8.15;;
1677;SDS011;6034;46.864;15.216;2024-01-10T11:26:06;11.00;;;8.02;;
1677;SDS011;6034;46.864;15.216;2024-01-10T11:28:35;12.73;;;8.48;;
1677;SDS011;6034;46.864;15.216;2024-01-10T11:31:03;11.98;;;8.35;;
1677;SDS011;6034;46.864;15.216;2024-01-10T11:33:33;12.18;;;7.78;;
1677;SDS011;6034;46.864;15.216;2024-01-10T11:36:08;11.50;;;7.95;;
1677;SDS011;6034;46.864;15.216;2024-01-10T11:38:43;14.40;;;8.80;;
1677;SDS011;6034;46.864;15.216;2024-01-10T11:41:21;11.70;;;7.85;;
1677;SDS011;6034;46.864;15.216;2024-01-10T11:46:53;14.73;;;8.45;;
1677;SDS011;6034;46.864;15.216;2024-01-10T11:49:22;12.45;;;8.95;;
1677;SDS011;6034;46.864;15.216;2024-01-10T11:51:52;11.95;;;7.97;;
1677;SDS011;6034;46.864;15.216;2024-01-10T11:54:40;12.90;;;7.43;;
1677;SDS011;6034;46.864;15.216;2024-01-10T11:57:23;11.30;;;8.68;;
1677;SDS011;6034;46.864;15.216;2024-01-10T11:59:53;11.63;;;8.55;;
1677;SDS011;6034;46.864;15.216;2024-01-10T12:02:24;10.45;;;8.23;;
1677;SDS011;6034;46.864;15.216;2024-01-10T12:04:53;18.05;;;8.73;;
1677;SDS011;6034;46.864;15.216;2024-01-10T12:07:21;14.40;;;8.88;;
1677;SDS011;6034;46.864;15.216;2024-01-10T12:09:49;12.13;;;9.27;;
1677;SDS011;6034;46.864;15.216;2024-01-10T12:12:18;11.90;;;8.77;;
1677;SDS011;6034;46.864;15.216;2024-01-10T12:14:46;14.63;;;9.90;;
1677;SDS011;6034;46.864;15.216;2024-01-10T12:17:13;11.48;;;9.18;;
1677;SDS011;6034;46.864;15.216;2024-01-10T12:19:41;14.88;;;9.38;;
1677;SDS011;6034;46.864;15.216;2024-01-10T12:22:10;18.58;;;10.55;;
1677;SDS011;6034;46.864;15.216;2024-01-10T12:24:42;11.80;;;9.30;;
1677;SDS011;6034;46.864;15.216;2024-01-10T12:27:15;12.90;;;8.00;;
1677;SDS011;6034;46.864;15.216;2024-01-10T12:29:45;13.13;;;9.48;;
1677;SDS011;6034;46.864;15.216;2024-01-10T12:32:17;14.40;;;10.95;;
1677;SDS011;6034;46.864;15.216;2024-01-10T12:34:46;10.52;;;8.52;;
1677;SDS011;6034;46.864;15.216;2024-01-10T12:37:13;9.80;;;8.27;;
1677;SDS011;6034;46.864;15.216;2024-01-10T12:39:40;13.90;;;10.07;;
1677;SDS011;6034;46.864;15.216;2024-01-10T12:42:08;14.65;;;9.00;;
1677;SDS011;6034;46.864;15.216;2024-01-10T12:44:35;12.88;;;8.77;;
1677;SDS011;6034;46.864;15.216;2024-01-10T12:47:04;11.80;;;8.63;;
1677;SDS011;6034;46.864;15.216;2024-01-10T12:49:32;13.90;;;9.65;;
1677;SDS011;6034;46.864;15.216;2024-01-10T12:51:59;12.40;;;9.23;;
1677;SDS011;6034;46.864;15.216;2024-01-10T12:54:26;16.33;;;10.38;;
1677;SDS011;6034;46.864;15.216;2024-01-10T12:56:54;11.77;;;8.80;;
1677;SDS011;6034;46.864;15.216;2024-01-10T12:59:22;12.52;;;9.20;;
1677;SDS011;6034;46.864;15.216;2024-01-10T13:01:49;11.90;;;9.05;;
1677;SDS011;6034;46.864;15.216;2024-01-10T13:04:18;13.30;;;8.57;;
1677;SDS011;6034;46.864;15.216;2024-01-10T13:06:45;10.52;;;7.50;;
1677;SDS011;6034;46.864;15.216;2024-01-10T13:09:13;12.07;;;8.63;;
1677;SDS011;6034;46.864;15.216;2024-01-10T13:11:40;10.27;;;7.60;;
1677;SDS011;6034;46.864;15.216;2024-01-10T13:14:08;14.90;;;8.13;;
1677;SDS011;6034;46.864;15.216;2024-01-10T13:16:35;13.00;;;8.10;;
1677;SDS011;6034;46.864;15.216;2024-01-10T13:19:03;10.90;;;8.02;;
1677;SDS011;6034;46.864;15.216;2024-01-10T13:21:32;10.57;;;8.57;;
1677;SDS011;6034;46.864;15.216;2024-01-10T13:24:00;11.10;;;8.20;;
1677;SDS011;6034;46.864;15.216;2024-01-10T13:26:28;11.85;;;8.02;;
1677;SDS011;6034;46.864;15.216;2024-01-10T13:28:55;8.90;;;6.60;;
1677;SDS011;6034;46.864;15.216;2024-01-10T13:31:23;12.13;;;7.95;;
1677;SDS011;6034;46.864;15.216;2024-01-10T13:33:50;9.63;;;7.28;;
1677;SDS011;6034;46.864;15.216;2024-01-10T13:36:18;10.75;;;7.57;;
1677;SDS011;6034;46.864;15.216;2024-01-10T13:38:47;10.63;;;8.20;;
1677;SDS011;6034;46.864;15.216;2024-01-10T13:41:14;9.60;;;7.50;;
1677;SDS011;6034;46.864;15.216;2024-01-10T13:43:41;11.45;;;7.40;;
1677;SDS011;6034;46.864;15.216;2024-01-10T13:46:09;8.77;;;6.25;;
1677;SDS011;6034;46.864;15.216;2024-01-10T13:48:36;12.48;;;7.13;;
1677;SDS011;6034;46.864;15.216;2024-01-10T13:51:03;11.68;;;7.60;;
1677;SDS011;6034;46.864;15.216;2024-01-10T13:53:31;9.27;;;7.55;;
1677;SDS011;6034;46.864;15.216;2024-01-10T13:56:00;11.68;;;7.93;;
1677;SDS011;6034;46.864;15.216;2024-01-10T13:58:27;11.05;;;8.65;;
1677;SDS011;6034;46.864;15.216;2024-01-10T14:00:54;12.77;;;8.32;;
1677;SDS011;6034;46.864;15.216;2024-01-10T14:03:22;16.40;;;10.13;;
1677;SDS011;6034;46.864;15.216;2024-01-10T14:05:49;10.30;;;7.50;;
1677;SDS011;6034;46.864;15.216;2024-01-10T14:08:16;14.18;;;10.18;;
1677;SDS011;6034;46.864;15.216;2024-01-10T14:10:44;13.60;;;9.40;;
1677;SDS011;6034;46.864;15.216;2024-01-10T14:13:12;15.32;;;9.82;;
1677;SDS011;6034;46.864;15.216;2024-01-10T14:15:40;13.27;;;8.13;;
1677;SDS011;6034;46.864;15.216;2024-01-10T14:18:08;11.95;;;8.30;;
1677;SDS011;6034;46.864;15.216;2024-01-10T14:20:35;11.88;;;8.75;;
1677;SDS011;6034;46.864;15.216;2024-01-10T14:23:02;13.20;;;9.02;;
1677;SDS011;6034;46.864;15.216;2024-01-10T14:25:31;11.80;;;8.30;;
1677;SDS011;6034;46.864;15.216;2024-01-10T14:27:59;12.20;;;7.90;;
1677;SDS011;6034;46.864;15.216;2024-01-10T14:30:29;11.98;;;8.13;;
1677;SDS011;6034;46.864;15.216;2024-01-10T14:32:57;12.73;;;8.27;;
1677;SDS011;6034;46.864;15.216;2024-01-10T14:35:25;10.85;;;8.13;;
1677;SDS011;6034;46.864;15.216;2024-01-10T14:37:52;11.20;;;8.00;;
1677;SDS011;6034;46.864;15.216;2024-01-10T14:40:20;11.13;;;7.30;;
1677;SDS011;6034;46.864;15.216;2024-01-10T14:42:49;11.65;;;8.43;;
1677;SDS011;6034;46.864;15.216;2024-01-10T14:45:17;10.77;;;7.30;;
1677;SDS011;6034;46.864;15.216;2024-01-10T14:47:47;11.57;;;7.70;;
1677;SDS011;6034;46.864;15.216;2024-01-10T14:50:16;12.80;;;8.23;;
1677;SDS011;6034;46.864;15.216;2024-01-10T14:52:44;12.20;;;8.52;;
1677;SDS011;6034;46.864;15.216;2024-01-10T14:55:11;10.20;;;7.85;;
1677;SDS011;6034;46.864;15.216;2024-01-10T14:57:39;10.27;;;6.97;;
1677;SDS011;6034;46.864;15.216;2024-01-10T15:00:07;13.70;;;8.52;;
1677;SDS011;6034;46.864;15.216;2024-01-10T15:02:35;12.35;;;8.98;;
1677;SDS011;6034;46.864;15.216;2024-01-10T15:05:05;13.52;;;8.43;;
1677;SDS011;6034;46.864;15.216;2024-01-10T15:07:33;10.90;;;8.32;;
1677;SDS011;6034;46.864;15.216;2024-01-10T15:10:00;12.27;;;8.30;;
1677;SDS011;6034;46.864;15.216;2024-01-10T15:12:29;11.82;;;8.70;;
1677;SDS011;6034;46.864;15.216;2024-01-10T15:14:57;15.43;;;9.10;;
1677;SDS011;6034;46.864;15.216;2024-01-10T15:17:25;11.65;;;8.60;;
1677;SDS011;6034;46.864;15.216;2024-01-10T15:19:52;11.90;;;9.00;;
1677;SDS011;6034;46.864;15.216;2024-01-10T15:22:21;14.25;;;9.40;;
1677;SDS011;6034;46.864;15.216;2024-01-10T15:24:49;11.95;;;8.50;;
1677;SDS011;6034;46.864;15.216;2024-01-10T15:27:16;15.10;;;10.07;;
1677;SDS011;6034;46.864;15.216;2024-01-10T15:29:43;12.00;;;8.80;;
1677;SDS011;6034;46.864;15.216;2024-01-10T15:32:11;10.30;;;8.18;;
1677;SDS011;6034;46.864;15.216;2024-01-10T15:34:38;12.93;;;9.90;;
1677;SDS011;6034;46.864;15.216;2024-01-10T15:37:06;11.65;;;7.90;;
1677;SDS011;6034;46.864;15.216;2024-01-10T15:39:36;16.42;;;10.52;;
1677;SDS011;6034;46.864;15.216;2024-01-10T15:42:04;12.43;;;8.38;;
1677;SDS011;6034;46.864;15.216;2024-01-10T15:44:31;13.55;;;10.00;;
1677;SDS011;6034;46.864;15.216;2024-01-10T15:46:59;12.80;;;8.68;;
1677;SDS011;6034;46.864;15.216;2024-01-10T15:49:26;13.50;;;10.25;;
1677;SDS011;6034;46.864;15.216;2024-01-10T15:51:53;14.38;;;8.90;;
1677;SDS011;6034;46.864;15.216;2024-01-10T15:54:21;15.32;;;10.70;;
1677;SDS011;6034;46.864;15.216;2024-01-10T15:56:50;12.50;;;9.00;;
1677;SDS011;6034;46.864;15.216;2024-01-10T15:59:17;13.63;;;9.05;;
1677;SDS011;6034;46.864;15.216;2024-01-10T16:01:44;10.43;;;8.43;;
1677;SDS011;6034;46.864;15.216;2024-01-10T16:04:12;14.65;;;9.80;;
1677;SDS011;6034;46.864;15.216;2024-01-10T16:06:40;15.45;;;11.57;;
1677;SDS011;6034;46.864;15.216;2024-01-10T16:09:10;15.05;;;10.32;;
1677;SDS011;6034;46.864;15.216;2024-01-10T16:11:39;13.45;;;8.27;;
1677;SDS011;6034;46.864;15.216;2024-01-10T16:14:09;11.32;;;7.90;;
1677;SDS011;6034;46.864;15.216;2024-01-10T16:16:36;11.98;;;8.15;;
1677;SDS011;6034;46.864;15.216;2024-01-10T16:19:03;12.38;;;8.50;;
1677;SDS011;6034;46.864;15.216;2024-01-10T16:21:31;9.93;;;8.10;;
1677;SDS011;6034;46.864;15.216;2024-01-10T16:23:58;16.30;;;7.65;;
1677;SDS011;6034;46.864;15.216;2024-01-10T16:26:25;12.02;;;8.27;;
1677;SDS011;6034;46.864;15.216;2024-01-10T16:28:53;13.95;;;10.27;;
1677;SDS011;6034;46.864;15.216;2024-01-10T16:31:22;14.65;;;9.80;;
1677;SDS011;6034;46.864;15.216;2024-01-10T16:33:49;11.27;;;8.45;;
1677;SDS011;6034;46.864;15.216;2024-01-10T16:36:17;11.82;;;8.10;;
1677;SDS011;6034;46.864;15.216;2024-01-10T16:38:44;12.57;;;8.75;;
1677;SDS011;6034;46.864;15.216;2024-01-10T16:41:11;22.02;;;14.70;;
1677;SDS011;6034;46.864;15.216;2024-01-10T16:43:39;14.70;;;11.73;;
1677;SDS011;6034;46.864;15.216;2024-01-10T16:46:06;16.70;;;10.88;;
1677;SDS011;6034;46.864;15.216;2024-01-10T16:48:35;17.17;;;9.90;;
1677;SDS011;6034;46.864;15.216;2024-01-10T16:51:03;18.73;;;12.07;;
1677;SDS011;6034;46.864;15.216;2024-01-10T16:53:32;15.95;;;10.00;;
1677;SDS011;6034;46.864;15.216;2024-01-10T16:55:59;15.00;;;10.80;;
1677;SDS011;6034;46.864;15.216;2024-01-10T16:58:26;14.90;;;10.23;;
1677;SDS011;6034;46.864;15.216;2024-01-10T17:00:53;15.80;;;11.07;;
1677;SDS011;6034;46.864;15.216;2024-01-10T17:03:22;16.30;;;11.60;;
1677;SDS011;6034;46.864;15.216;2024-01-10T17:05:51;15.68;;;11.40;;
1677;SDS011;6034;46.864;15.216;2024-01-10T17:08:18;16.02;;;11.38;;
1677;SDS011;6034;46.864;15.216;2024-01-10T17:10:47;12.52;;;10.95;;
1677;SDS011;6034;46.864;15.216;2024-01-10T17:13:15;18.05;;;11.43;;
1677;SDS011;6034;46.864;15.216;2024-01-10T17:15:42;15.63;;;10.95;;
1677;SDS011;6034;46.864;15.216;2024-01-10T17:18:09;16.65;;;11.18;;
1677;SDS011;6034;46.864;15.216;2024-01-10T17:20:36;16.35;;;10.60;;
1677;SDS011;6034;46.864;15.216;2024-01-10T17:23:06;16.42;;;10.75;;
1677;SDS011;6034;46.864;15.216;2024-01-10T17:25:33;14.40;;;10.02;;
1677;SDS011;6034;46.864;15.216;2024-01-10T17:28:00;14.70;;;10.30;;
1677;SDS011;6034;46.864;15.216;2024-01-10T17:30:29;19.63;;;11.40;;
1677;SDS011;6034;46.864;15.216;2024-01-10T17:32:57;18.88;;;12.35;;
1677;SDS011;6034;46.864;15.216;2024-01-10T17:35:25;19.63;;;12.80;;
1677;SDS011;6034;46.864;15.216;2024-01-10T17:37:52;19.95;;;12.52;;
1677;SDS011;6034;46.864;15.216;2024-01-10T17:40:21;17.10;;;11.77;;
1677;SDS011;6034;46.864;15.216;2024-01-10T17:42:48;18.08;;;11.60;;
1677;SDS011;6034;46.864;15.216;2024-01-10T17:45:16;19.05;;;11.70;;
1677;SDS011;6034;46.864;15.216;2024-01-10T17:47:43;16.02;;;11.15;;
1677;SDS011;6034;46.864;15.216;2024-01-10T17:50:10;16.95;;;11.15;;
1677;SDS011;6034;46.864;15.216;2024-01-10T17:52:38;15.90;;;11.32;;
1677;SDS011;6034;46.864;15.216;2024-01-10T17:55:06;16.05;;;11.02;;
1677;SDS011;6034;46.864;15.216;2024-01-10T17:57:36;15.23;;;10.70;;
1677;SDS011;6034;46.864;15.216;2024-01-10T18:00:03;15.82;;;10.35;;
1677;SDS011;6034;46.864;15.216;2024-01-10T18:02:34;15.60;;;11.50;;
1677;SDS011;6034;46.864;15.216;2024-01-10T18:05:02;16.25;;;10.80;;
1677;SDS011;6034;46.864;15.216;2024-01-10T18:07:30;19.15;;;12.73;;
1677;SDS011;6034;46.864;15.216;2024-01-10T18:09:57;17.00;;;12.68;;
1677;SDS011;6034;46.864;15.216;2024-01-10T18:12:24;16.42;;;11.13;;
1677;SDS011;6034;46.864;15.216;2024-01-10T18:14:54;15.75;;;12.00;;
1677;SDS011;6034;46.864;15.216;2024-01-10T18:17:22;15.68;;;11.85;;
1677;SDS011;6034;46.864;15.216;2024-01-10T18:19:49;18.40;;;10.80;;
1677;SDS011;6034;46.864;15.216;2024-01-10T18:22:16;16.27;;;10.93;;
1677;SDS011;6034;46.864;15.216;2024-01-10T18:24:44;15.90;;;10.20;;
1677;SDS011;6034;46.864;15.216;2024-01-10T18:27:11;16.15;;;11.50;;
1677;SDS011;6034;46.864;15.216;2024-01-10T18:29:38;14.02;;;10.40;;
1677;SDS011;6034;46.864;15.216;2024-01-10T18:32:08;16.85;;;10.82;;
1677;SDS011;6034;46.864;15.216;2024-01-10T18:34:37;15.50;;;11.85;;
1677;SDS011;6034;46.864;15.216;2024-01-10T18:37:05;14.50;;;10.88;;
1677;SDS011;6034;46.864;15.216;2024-01-10T18:39:33;17.10;;;12.40;;
1677;SDS011;6034;46.864;15.216;2024-01-10T18:42:00;17.92;;;10.88;;
1677;SDS011;6034;46.864;15.216;2024-01-10T18:44:28;14.30;;;10.30;;
1677;SDS011;6034;46.864;15.216;2024-01-10T18:46:56;16.55;;;11.60;;
1677;SDS011;6034;46.864;15.216;2024-01-10T18:49:25;15.57;;;10.50;;
1677;SDS011;6034;46.864;15.216;2024-01-10T18:51:52;13.80;;;9.40;;
1677;SDS011;6034;46.864;15.216;2024-01-10T18:54:22;23.80;;;13.57;;
1677;SDS011;6034;46.864;15.216;2024-01-10T18:56:50;24.60;;;15.70;;
1677;SDS011;6034;46.864;15.216;2024-01-10T18:59:18;18.05;;;11.65;;
1677;SDS011;6034;46.864;15.216;2024-01-10T19:01:46;23.08;;;14.77;;
1677;SDS011;6034;46.864;15.216;2024-01-10T19:04:14;19.70;;;14.25;;
1677;SDS011;6034;46.864;15.216;2024-01-10T19:06:43;29.95;;;18.10;;
1677;SDS011;6034;46.864;15.216;2024-01-10T19:09:11;26.85;;;18.13;;
1677;SDS011;6034;46.864;15.216;2024-01-10T19:11:39;27.30;;;18.77;;
1677;SDS011;6034;46.864;15.216;2024-01-10T19:14:07;19.95;;;15.75;;
1677;SDS011;6034;46.864;15.216;2024-01-10T19:16:34;25.60;;;16.50;;
1677;SDS011;6034;46.864;15.216;2024-01-10T19:19:03;20.08;;;15.15;;
1677;SDS011;6034;46.864;15.216;2024-01-10T19:21:31;16.65;;;11.65;;
1677;SDS011;6034;46.864;15.216;2024-01-10T19:23:59;20.95;;;15.88;;
1677;SDS011;6034;46.864;15.216;2024-01-10T19:26:28;18.55;;;14.75;;
1677;SDS011;6034;46.864;15.216;2024-01-10T19:28:56;17.27;;;12.10;;
1677;SDS011;6034;46.864;15.216;2024-01-10T19:31:23;20.70;;;11.43;;
1677;SDS011;6034;46.864;15.216;2024-01-10T19:33:50;15.00;;;10.80;;
1677;SDS011;6034;46.864;15.216;2024-01-10T19:36:18;18.33;;;11.73;;
1677;SDS011;6034;46.864;15.216;2024-01-10T19:38:46;19.80;;;12.18;;
1677;SDS011;6034;46.864;15.216;2024-01-10T19:41:20;17.33;;;12.68;;
1677;SDS011;6034;46.864;15.216;2024-01-10T19:43:49;20.00;;;12.20;;
1677;SDS011;6034;46.864;15.216;2024-01-10T19:46:17;17.63;;;13.10;;
1677;SDS011;6034;46.864;15.216;2024-01-10T19:48:45;17.27;;;11.93;;
1677;SDS011;6034;46.864;15.216;2024-01-10T19:51:14;16.88;;;11.90;;
1677;SDS011;6034;46.864;15.216;2024-01-10T19:53:42;16.90;;;11.77;;
1677;SDS011;6034;46.864;15.216;2024-01-10T19:56:13;16.75;;;12.10;;
1677;SDS011;6034;46.864;15.216;2024-01-10T19:58:43;19.33;;;12.82;;
1677;SDS011;6034;46.864;15.216;2024-01-10T20:01:10;17.17;;;13.35;;
1677;SDS011;6034;46.864;15.216;2024-01-10T20:03:40;19.00;;;11.73;;
1677;SDS011;6034;46.864;15.216;2024-01-10T20:06:08;19.98;;;13.27;;
1677;SDS011;6034;46.864;15.216;2024-01-10T20:08:35;21.83;;;14.43;;
1677;SDS011;6034;46.864;15.216;2024-01-10T20:11:02;16.35;;;12.35;;
1677;SDS011;6034;46.864;15.216;2024-01-10T20:13:30;17.42;;;11.00;;
1677;SDS011;6034;46.864;15.216;2024-01-10T20:15:59;18.45;;;12.88;;
1677;SDS011;6034;46.864;15.216;2024-01-10T20:18:28;21.35;;;14.05;;
1677;SDS011;6034;46.864;15.216;2024-01-10T20:20:56;18.95;;;13.05;;
1677;SDS011;6034;46.864;15.216;2024-01-10T20:23:23;19.83;;;14.85;;
1677;SDS011;6034;46.864;15.216;2024-01-10T20:25:51;23.23;;;14.95;;
1677;SDS011;6034;46.864;15.216;2024-01-10T20:28:19;21.67;;;14.48;;
1677;SDS011;6034;46.864;15.216;2024-01-10T20:30:48;18.33;;;12.80;;
1677;SDS011;6034;46.864;15.216;2024-01-10T20:33:16;23.58;;;12.68;;
1677;SDS011;6034;46.864;15.216;2024-01-10T20:35:44;19.75;;;12.50;;
1677;SDS011;6034;46.864;15.216;2024-01-10T20:38:12;20.02;;;13.00;;
1677;SDS011;6034;46.864;15.216;2024-01-10T20:40:40;18.55;;;13.10;;
1677;SDS011;6034;46.864;15.216;2024-01-10T20:43:07;16.40;;;10.98;;
1677;SDS011;6034;46.864;15.216;2024-01-10T20:45:35;15.88;;;11.30;;
1677;SDS011;6034;46.864;15.216;2024-01-10T20:48:02;18.13;;;11.65;;
1677;SDS011;6034;46.864;15.216;2024-01-10T20:50:32;17.70;;;10.95;;
1677;SDS011;6034;46.864;15.216;2024-01-10T20:52:59;14.45;;;10.90;;
1677;SDS011;6034;46.864;15.216;2024-01-10T20:55:28;18.73;;;12.02;;
1677;SDS011;6034;46.864;15.216;2024-01-10T20:57:55;21.83;;;11.63;;
1677;SDS011;6034;46.864;15.216;2024-01-10T21:00:22;16.00;;;11.10;;
1677;SDS011;6034;46.864;15.216;2024-01-10T21:02:52;15.02;;;10.82;;
1677;SDS011;6034;46.864;15.216;2024-01-10T21:05:19;19.77;;;12.55;;
1677;SDS011;6034;46.864;15.216;2024-01-10T21:07:48;34.10;;;19.70;;
1677;SDS011;6034;46.864;15.216;2024-01-10T21:10:16;34.97;;;20.20;;
1677;SDS011;6034;46.864;15.216;2024-01-10T21:12:45;33.50;;;19.67;;